Time;durP1;ratioP1;P1;durP2;ratioP2;P2;SDS_P1;SDS_P2;PMS_P1;PMS_P2;Temp;Humidity;BMP_temperature;BMP_pressure;BME280_temperature;BME280_humidity;BME280_pressure;Samples;Min_cycle;Max_cycle;Signal;HPM_P1;HPM_P2
2021/07/24 00:00:17;;;;;;;7.50;6.53;;;25.60;51.70;;;;;;5101041;28;20727;-68
2021/07/24 00:02:47;;;;;;;6.97;6.37;;;25.60;51.80;;;;;;5111167;28;20261;-68
2021/07/24 00:05:21;;;;;;;8.57;6.80;;;25.60;51.90;;;;;;5105838;28;20214;-69
2021/07/24 00:07:53;;;;;;;7.40;6.70;;;25.60;51.90;;;;;;5103568;28;20586;-69
2021/07/24 00:10:20;;;;;;;7.43;6.73;;;25.60;51.90;;;;;;5104761;28;20218;-68
2021/07/24 00:12:52;;;;;;;7.30;6.60;;;25.60;52.00;;;;;;5111478;28;20249;-69
2021/07/24 00:15:22;;;;;;;8.97;6.77;;;25.50;51.80;;;;;;5098176;28;20284;-69
2021/07/24 00:17:55;;;;;;;7.23;6.57;;;25.60;52.00;;;;;;5101595;28;20560;-69
2021/07/24 00:20:24;;;;;;;7.87;6.50;;;25.60;52.00;;;;;;5103092;28;20215;-69
2021/07/24 00:22:58;;;;;;;7.27;6.67;;;25.50;52.00;;;;;;5096908;28;20201;-69
2021/07/24 00:25:28;;;;;;;6.47;5.97;;;25.50;52.70;;;;;;5095125;28;20239;-69
2021/07/24 00:27:59;;;;;;;8.00;5.97;;;25.50;52.10;;;;;;5103084;28;20708;-68
2021/07/24 00:30:32;;;;;;;8.00;6.73;;;25.50;52.00;;;;;;5094301;28;20189;-69
2021/07/24 00:33:03;;;;;;;6.70;6.10;;;25.50;52.00;;;;;;5101812;28;20204;-69
2021/07/24 00:35:35;;;;;;;7.00;6.40;;;25.50;52.10;;;;;;5107923;28;20196;-69
2021/07/24 00:38:04;;;;;;;7.13;6.57;;;25.50;52.00;;;;;;5104808;28;20213;-69
2021/07/24 00:40:42;;;;;;;7.00;6.30;;;25.50;52.10;;;;;;5105714;28;20261;-69
2021/07/24 00:43:12;;;;;;;8.40;6.40;;;25.50;52.10;;;;;;5100797;28;20199;-69
2021/07/24 00:45:47;;;;;;;7.50;6.80;;;25.50;52.20;;;;;;5090466;28;20199;-69
2021/07/24 00:48:21;;;;;;;7.27;6.57;;;25.40;52.20;;;;;;5101786;28;20668;-68
2021/07/24 00:50:57;;;;;;;6.90;6.30;;;25.50;52.20;;;;;;5108279;28;20216;-69
2021/07/24 00:53:36;;;;;;;7.43;6.73;;;25.40;52.20;;;;;;5105175;28;20192;-69
2021/07/24 00:56:07;;;;;;;6.67;6.07;;;25.40;52.20;;;;;;5108042;28;20644;-68
2021/07/24 00:58:37;;;;;;;6.70;6.10;;;25.40;52.20;;;;;;5104652;28;20254;-68
2021/07/24 01:01:09;;;;;;;6.27;5.77;;;25.40;52.20;;;;;;5100840;28;20676;-68
2021/07/24 01:03:41;;;;;;;7.23;6.40;;;25.40;52.30;;;;;;5105771;28;20201;-68
2021/07/24 01:06:15;;;;;;;7.47;6.40;;;25.40;52.20;;;;;;5103457;27;20669;-68
2021/07/24 01:08:58;;;;;;;7.57;6.87;;;25.40;52.20;;;;;;5098713;28;20291;-68
2021/07/24 01:11:28;;;;;;;7.60;6.90;;;25.40;52.20;;;;;;5098041;28;20557;-68
2021/07/24 01:13:56;;;;;;;7.00;6.40;;;25.40;52.20;;;;;;5103002;28;20610;-69
2021/07/24 01:16:28;;;;;;;7.83;7.03;;;25.40;52.20;;;;;;5103976;28;20277;-69
2021/07/24 01:18:56;;;;;;;6.33;5.73;;;25.40;52.30;;;;;;5108983;28;20208;-68
2021/07/24 01:21:29;;;;;;;7.07;6.47;;;25.40;52.30;;;;;;5103154;28;20196;-68
2021/07/24 01:23:58;;;;;;;7.40;6.30;;;25.40;52.40;;;;;;5108616;28;21096;-68
2021/07/24 01:26:34;;;;;;;7.43;6.73;;;25.40;52.40;;;;;;5107137;28;20297;-69
2021/07/24 01:29:05;;;;;;;7.10;6.50;;;25.40;52.40;;;;;;5100193;28;20220;-68
2021/07/24 01:31:37;;;;;;;8.37;6.43;;;25.40;52.40;;;;;;5099041;28;20225;-69
2021/07/24 01:34:09;;;;;;;7.17;6.53;;;25.30;52.30;;;;;;5100378;28;20599;-68
2021/07/24 01:36:41;;;;;;;7.63;6.70;;;25.40;52.40;;;;;;5101495;28;20242;-68
2021/07/24 01:39:13;;;;;;;8.70;7.00;;;25.30;52.50;;;;;;5099452;28;20200;-68
2021/07/24 01:41:48;;;;;;;7.13;6.50;;;25.40;52.60;;;;;;5106735;28;20212;-68
2021/07/24 01:44:18;;;;;;;9.57;6.50;;;25.30;52.50;;;;;;5106057;27;20188;-68
2021/07/24 01:46:47;;;;;;;7.20;6.60;;;25.30;52.50;;;;;;5107977;28;20274;-68
2021/07/24 01:52:47;;;;;;;7.37;6.67;;;25.30;52.50;;;;;;5023973;28;20203;-68
2021/07/24 01:55:22;;;;;;;8.97;6.67;;;25.30;52.40;;;;;;5101309;28;20231;-68
2021/07/24 01:57:54;;;;;;;7.47;6.77;;;25.30;52.40;;;;;;5099089;28;20308;-68
2021/07/24 02:00:29;;;;;;;7.20;6.50;;;25.30;52.40;;;;;;5090372;28;20220;-68
2021/07/24 02:03:06;;;;;;;7.90;6.87;;;25.30;52.40;;;;;;5096133;28;20213;-68
2021/07/24 02:05:51;;;;;;;7.20;6.50;;;25.30;52.40;;;;;;5094512;28;20204;-68
2021/07/24 02:08:36;;;;;;;7.17;6.50;;;25.30;52.40;;;;;;5103335;28;20208;-68
2021/07/24 02:11:06;;;;;;;7.67;7.00;;;25.30;52.40;;;;;;5099880;28;20196;-69
2021/07/24 02:13:40;;;;;;;8.00;6.47;;;25.30;52.40;;;;;;5098271;28;20196;-68
2021/07/24 02:16:09;;;;;;;8.47;7.07;;;25.30;52.30;;;;;;5087010;28;20265;-68
2021/07/24 02:18:42;;;;;;;7.90;6.77;;;25.30;52.30;;;;;;5103791;28;20671;-68
2021/07/24 02:21:13;;;;;;;6.60;6.00;;;25.30;52.30;;;;;;5085621;28;20200;-68
2021/07/24 02:23:48;;;;;;;8.17;6.67;;;25.30;52.40;;;;;;5108472;28;20677;-68
2021/07/24 02:26:20;;;;;;;7.70;6.90;;;25.30;52.30;;;;;;5096845;28;20294;-68
2021/07/24 02:29:01;;;;;;;7.63;6.53;;;25.30;52.30;;;;;;5091538;28;20308;-68
2021/07/24 02:31:32;;;;;;;6.80;6.20;;;25.20;52.20;;;;;;5102050;28;20602;-68
2021/07/24 02:34:03;;;;;;;7.37;6.70;;;25.20;52.30;;;;;;5108539;28;20625;-68
2021/07/24 02:36:32;;;;;;;7.23;6.63;;;25.20;52.30;;;;;;5102032;28;20249;-68
2021/07/24 02:39:00;;;;;;;7.33;6.63;;;25.20;52.30;;;;;;5103893;28;20204;-69
2021/07/24 02:41:32;;;;;;;7.30;6.60;;;25.20;52.30;;;;;;5098552;28;20192;-68
2021/07/24 02:44:03;;;;;;;7.47;6.77;;;25.20;52.30;;;;;;5104575;28;20232;-69
2021/07/24 02:46:34;;;;;;;6.63;6.03;;;25.20;52.90;;;;;;5102339;28;20202;-69
2021/07/24 02:49:08;;;;;;;6.73;6.13;;;25.20;52.30;;;;;;5097091;27;20221;-69
2021/07/24 02:51:38;;;;;;;6.80;6.20;;;25.20;52.30;;;;;;5105112;28;20196;-68
2021/07/24 02:54:08;;;;;;;6.90;6.30;;;25.20;52.40;;;;;;5098411;28;20209;-68
2021/07/24 02:56:40;;;;;;;7.07;6.37;;;25.20;52.30;;;;;;5095668;28;20195;-68
2021/07/24 02:59:11;;;;;;;7.43;6.70;;;25.20;52.30;;;;;;5107266;28;20200;-68
2021/07/24 03:01:55;;;;;;;7.23;6.53;;;25.20;52.40;;;;;;5095229;28;20276;-68
2021/07/24 03:04:22;;;;;;;7.30;6.60;;;25.20;52.30;;;;;;5088905;28;20193;-68
2021/07/24 03:06:52;;;;;;;6.70;6.10;;;25.20;52.30;;;;;;5106794;28;20228;-68
2021/07/24 03:09:22;;;;;;;6.80;6.20;;;25.20;52.40;;;;;;5098662;28;20236;-68
2021/07/24 03:11:50;;;;;;;7.10;6.40;;;25.20;52.40;;;;;;5109074;28;20203;-68
2021/07/24 03:14:19;;;;;;;7.40;6.70;;;25.10;52.30;;;;;;5107010;28;20195;-68
2021/07/24 03:16:48;;;;;;;7.63;6.03;;;25.10;52.30;;;;;;5106011;28;20237;-68
2021/07/24 03:19:19;;;;;;;7.37;6.63;;;25.10;52.30;;;;;;5102562;28;20527;-68
2021/07/24 03:21:55;;;;;;;7.73;6.93;;;25.10;52.30;;;;;;5095722;28;20291;-69
2021/07/24 03:24:27;;;;;;;7.40;6.70;;;25.10;52.40;;;;;;5099717;28;20554;-68
2021/07/24 03:26:58;;;;;;;8.00;7.13;;;25.10;52.30;;;;;;5101211;28;20834;-68
2021/07/24 03:29:29;;;;;;;7.40;6.70;;;25.10;52.40;;;;;;5098277;28;20227;-68
2021/07/24 03:32:05;;;;;;;6.60;6.10;;;25.10;52.40;;;;;;5098525;28;20781;-68
2021/07/24 03:34:35;;;;;;;7.50;6.70;;;25.10;52.50;;;;;;5094530;28;20268;-68
2021/07/24 03:37:08;;;;;;;6.80;6.20;;;25.10;53.10;;;;;;5107745;28;20214;-68
2021/07/24 03:39:40;;;;;;;7.47;6.57;;;25.10;52.50;;;;;;5115330;28;20269;-68
2021/07/24 03:42:22;;;;;;;6.70;6.10;;;25.10;52.50;;;;;;5106095;28;20216;-68
2021/07/24 03:44:52;;;;;;;7.60;6.90;;;25.10;52.50;;;;;;5115194;28;20291;-68
2021/07/24 03:47:20;;;;;;;7.23;6.63;;;25.10;52.50;;;;;;5102448;28;20217;-68
2021/07/24 03:49:51;;;;;;;8.07;7.17;;;25.00;52.50;;;;;;5112230;28;20200;-68
2021/07/24 03:52:23;;;;;;;7.67;6.37;;;25.10;52.50;;;;;;5113116;28;20272;-68
2021/07/24 03:54:53;;;;;;;7.13;6.50;;;25.10;52.50;;;;;;5115687;28;20213;-68
2021/07/24 03:57:21;;;;;;;7.13;6.43;;;25.00;52.50;;;;;;5120584;28;20250;-67
2021/07/24 03:59:51;;;;;;;8.27;6.80;;;25.00;52.50;;;;;;5113076;28;20250;-67
2021/07/24 04:02:23;;;;;;;8.93;6.37;;;25.10;52.50;;;;;;5111622;28;20580;-68
2021/07/24 04:04:55;;;;;;;7.57;6.77;;;25.00;52.50;;;;;;5113889;28;20295;-68
2021/07/24 04:07:38;;;;;;;7.57;6.53;;;25.00;52.50;;;;;;5106461;28;20235;-68
2021/07/24 04:10:10;;;;;;;7.30;6.67;;;25.00;52.50;;;;;;5113276;28;20197;-68
2021/07/24 04:12:43;;;;;;;7.93;6.43;;;25.00;52.40;;;;;;5085513;28;20216;-72
2021/07/24 04:15:19;;;;;;;8.40;7.60;;;25.10;52.60;;;;;;5116677;28;20205;-69
2021/07/24 04:17:54;;;;;;;9.23;8.43;;;25.10;52.40;;;;;;5110884;28;20209;-69
2021/07/24 04:20:24;;;;;;;9.37;8.37;;;25.00;52.20;;;;;;5107068;28;20193;-68
2021/07/24 04:22:53;;;;;;;9.47;8.07;;;25.00;52.10;;;;;;5105497;28;20215;-68
2021/07/24 04:25:30;;;;;;;9.13;8.03;;;25.00;52.00;;;;;;5104135;28;20203;-65
2021/07/24 04:28:01;;;;;;;9.40;8.40;;;25.00;52.10;;;;;;5107762;28;20227;-68
2021/07/24 04:30:31;;;;;;;9.40;8.30;;;25.00;52.00;;;;;;5102641;28;20197;-68
2021/07/24 04:33:06;;;;;;;9.57;8.67;;;25.00;52.00;;;;;;5111072;28;20212;-67
2021/07/24 04:35:35;;;;;;;9.50;8.47;;;25.00;52.10;;;;;;5100993;28;20275;-67
2021/07/24 04:38:11;;;;;;;9.87;8.60;;;24.90;52.10;;;;;;5107649;28;20196;-67
2021/07/24 04:40:43;;;;;;;10.60;9.33;;;24.90;52.10;;;;;;5103593;28;20246;-68
2021/07/24 04:43:16;;;;;;;9.40;8.43;;;24.90;52.10;;;;;;5094399;28;20205;-68
2021/07/24 04:45:46;;;;;;;9.50;8.60;;;24.90;52.20;;;;;;5109612;28;20211;-69
2021/07/24 04:48:16;;;;;;;9.87;8.97;;;24.90;52.10;;;;;;5100883;28;20216;-69
2021/07/24 04:50:53;;;;;;;10.17;8.87;;;25.00;52.10;;;;;;5095711;28;20217;-69
2021/07/24 04:53:29;;;;;;;9.83;8.83;;;24.90;52.10;;;;;;5103954;27;20200;-68
2021/07/24 04:56:01;;;;;;;9.27;8.37;;;24.90;52.20;;;;;;5097305;28;20223;-68
2021/07/24 04:58:34;;;;;;;9.07;8.17;;;24.90;52.20;;;;;;5102333;28;20197;-67
2021/07/24 05:01:05;;;;;;;9.07;7.83;;;24.90;52.30;;;;;;5096196;28;20208;-67
2021/07/24 05:03:36;;;;;;;10.03;7.73;;;25.00;52.30;;;;;;5083845;28;20193;-67
2021/07/24 05:06:07;;;;;;;7.00;6.40;;;24.90;52.10;;;;;;5103734;28;20205;-67
2021/07/24 05:08:38;;;;;;;6.93;6.33;;;25.00;52.10;;;;;;5096544;28;20227;-67
2021/07/24 05:11:19;;;;;;;7.77;6.97;;;25.10;52.20;;;;;;5107077;28;20314;-67
2021/07/24 05:13:47;;;;;;;7.03;6.33;;;25.00;52.10;;;;;;5102928;27;20213;-67
2021/07/24 05:16:20;;;;;;;9.03;6.97;;;25.00;52.00;;;;;;5103870;28;20193;-69
2021/07/24 05:18:56;;;;;;;9.50;7.63;;;25.10;52.00;;;;;;5108180;28;20196;-69
2021/07/24 05:21:27;;;;;;;7.30;6.60;;;25.10;52.00;;;;;;5104880;28;20196;-69
2021/07/24 05:23:57;;;;;;;9.27;6.83;;;25.00;52.00;;;;;;5091500;28;20274;-69
2021/07/24 05:26:29;;;;;;;7.50;6.80;;;25.10;52.00;;;;;;5101512;28;20530;-68
2021/07/24 05:28:59;;;;;;;7.37;6.53;;;25.10;52.00;;;;;;5106302;28;20230;-68
2021/07/24 05:31:32;;;;;;;10.03;6.90;;;25.10;52.00;;;;;;5101977;28;20678;-67
2021/07/24 05:34:03;;;;;;;7.20;6.50;;;25.10;52.00;;;;;;5104203;28;20207;-67
2021/07/24 05:36:33;;;;;;;7.67;6.97;;;25.10;52.10;;;;;;5106857;28;20633;-68
2021/07/24 05:39:07;;;;;;;7.20;6.50;;;25.00;52.00;;;;;;5100709;28;20196;-68
2021/07/24 05:41:38;;;;;;;7.53;6.83;;;25.10;52.10;;;;;;5102754;28;20192;-68
2021/07/24 05:44:12;;;;;;;8.17;6.27;;;25.00;52.10;;;;;;5100562;28;20200;-67
2021/07/24 05:46:45;;;;;;;7.70;6.77;;;25.00;52.10;;;;;;5105198;28;20350;-69
2021/07/24 05:49:18;;;;;;;6.87;6.17;;;25.00;52.20;;;;;;5102935;28;20683;-68
2021/07/24 05:51:56;;;;;;;7.00;6.33;;;25.00;52.20;;;;;;5121068;28;20675;-66
2021/07/24 05:54:25;;;;;;;7.60;6.73;;;25.00;52.20;;;;;;5112264;28;21360;-66
2021/07/24 05:56:58;;;;;;;7.43;6.63;;;25.00;52.20;;;;;;5102040;28;20196;-68
2021/07/24 05:59:27;;;;;;;7.47;6.77;;;25.00;52.20;;;;;;5103404;28;20211;-69
2021/07/24 06:02:12;;;;;;;7.33;6.63;;;25.00;52.20;;;;;;5104166;28;20661;-66
2021/07/24 06:04:47;;;;;;;7.73;7.00;;;25.00;52.20;;;;;;5100266;28;20770;-67
2021/07/24 06:07:30;;;;;;;7.00;6.30;;;25.00;52.20;;;;;;5086807;28;20205;-66
2021/07/24 06:09:58;;;;;;;7.87;7.17;;;25.10;52.30;;;;;;5097731;28;20846;-66
2021/07/24 06:12:27;;;;;;;7.00;6.30;;;25.00;52.30;;;;;;5097496;28;20204;-70
2021/07/24 06:14:59;;;;;;;6.70;6.10;;;25.00;52.40;;;;;;5098711;28;20198;-68
2021/07/24 06:17:41;;;;;;;7.17;6.50;;;25.10;52.50;;;;;;5100744;28;20233;-68
2021/07/24 06:20:13;;;;;;;8.63;7.07;;;25.10;52.70;;;;;;5095568;28;20195;-70
2021/07/24 06:22:44;;;;;;;11.13;6.87;;;25.20;52.70;;;;;;5099374;28;20196;-71
2021/07/24 06:25:14;;;;;;;9.50;7.40;;;25.20;52.50;;;;;;5095077;28;20204;-72
2021/07/24 06:27:46;;;;;;;9.43;7.00;;;25.20;52.60;;;;;;5105041;28;20595;-70
2021/07/24 06:30:16;;;;;;;16.37;7.37;;;25.20;52.60;;;;;;5099819;28;20209;-69
2021/07/24 06:32:46;;;;;;;10.13;7.03;;;25.30;52.50;;;;;;5101910;28;20415;-67
2021/07/24 06:35:16;;;;;;;7.07;6.33;;;25.30;52.40;;;;;;5105752;27;20848;-67
2021/07/24 06:37:47;;;;;;;8.50;7.17;;;25.40;52.40;;;;;;5098670;28;20296;-68
2021/07/24 06:40:30;;;;;;;9.33;7.67;;;25.40;52.50;;;;;;5106383;28;20295;-67
2021/07/24 06:42:58;;;;;;;8.13;7.33;;;25.40;52.70;;;;;;5101608;28;20205;-67
2021/07/24 06:45:30;;;;;;;9.33;8.17;;;25.40;52.50;;;;;;5105262;28;20200;-67
2021/07/24 06:47:59;;;;;;;9.60;8.33;;;25.50;52.60;;;;;;5099083;28;20214;-66
2021/07/24 06:50:30;;;;;;;10.80;7.87;;;25.50;52.80;;;;;;5095972;28;20657;-68
2021/07/24 06:53:00;;;;;;;9.93;6.87;;;25.50;52.70;;;;;;5097813;28;20197;-68
2021/07/24 06:55:28;;;;;;;10.30;6.90;;;25.50;52.30;;;;;;5095005;28;20188;-68
2021/07/24 06:58:01;;;;;;;12.60;7.83;;;25.60;52.30;;;;;;5102953;28;20199;-69
2021/07/24 07:00:37;;;;;;;8.00;6.70;;;25.60;52.10;;;;;;5088262;28;20786;-70
2021/07/24 07:03:08;;;;;;;8.07;6.83;;;25.60;52.10;;;;;;5099426;28;20247;-68
2021/07/24 07:05:40;;;;;;;6.57;5.90;;;25.60;52.10;;;;;;5106567;28;20660;-68
2021/07/24 07:08:11;;;;;;;6.90;6.20;;;25.70;51.90;;;;;;5101220;28;20212;-68
2021/07/24 07:11:02;;;;;;;9.60;6.30;;;25.70;52.10;;;;;;5105253;28;20236;-69
2021/07/24 07:13:34;;;;;;;7.80;7.00;;;25.70;52.00;;;;;;5100072;28;20193;-69
2021/07/24 07:16:07;;;;;;;7.67;6.23;;;25.70;52.10;;;;;;5093101;28;20192;-68
2021/07/24 07:18:40;;;;;;;8.63;6.77;;;25.80;52.10;;;;;;5102721;28;20261;-66
2021/07/24 07:21:11;;;;;;;8.30;6.90;;;25.80;52.20;;;;;;5100516;28;20738;-67
2021/07/24 07:23:52;;;;;;;7.93;7.13;;;25.80;52.20;;;;;;5099464;28;20722;-66
2021/07/24 07:26:26;;;;;;;7.87;7.03;;;25.80;52.20;;;;;;5097128;28;20204;-69
2021/07/24 07:28:58;;;;;;;8.37;7.10;;;25.80;52.20;;;;;;5107449;28;20228;-70
2021/07/24 07:31:26;;;;;;;8.40;7.37;;;25.80;52.40;;;;;;5097733;28;20201;-70
2021/07/24 07:33:56;;;;;;;11.50;7.57;;;25.80;52.40;;;;;;5105736;28;20196;-70
2021/07/24 07:36:31;;;;;;;10.40;7.83;;;25.90;52.60;;;;;;5105716;28;20388;-71
2021/07/24 07:39:02;;;;;;;8.00;7.20;;;25.90;52.60;;;;;;5099641;28;20661;-70
2021/07/24 07:41:33;;;;;;;9.03;8.10;;;25.90;52.50;;;;;;5070677;28;20809;-69
2021/07/24 07:44:03;;;;;;;9.80;8.00;;;25.90;53.30;;;;;;5105764;28;20271;-69
2021/07/24 07:46:34;;;;;;;10.80;8.00;;;25.90;54.60;;;;;;5101464;28;20201;-68
2021/07/24 07:49:07;;;;;;;13.70;7.90;;;25.90;54.30;;;;;;5094663;28;20216;-69
2021/07/24 07:51:41;;;;;;;11.83;8.47;;;26.00;54.30;;;;;;5099759;28;20200;-68
2021/07/24 07:54:10;;;;;;;10.77;8.70;;;26.00;54.20;;;;;;5106310;28;20211;-69
2021/07/24 07:56:38;;;;;;;11.80;8.73;;;25.90;54.00;;;;;;5100236;28;20534;-69
2021/07/24 07:59:09;;;;;;;9.33;8.33;;;25.90;53.70;;;;;;5104420;28;20208;-68
2021/07/24 08:01:39;;;;;;;9.63;8.17;;;25.90;53.60;;;;;;5105335;28;20212;-68
2021/07/24 08:04:12;;;;;;;33.10;14.17;;;25.90;53.60;;;;;;5105214;28;20204;-70
2021/07/24 08:06:45;;;;;;;34.57;14.37;;;25.90;54.40;;;;;;5108384;28;20201;-67
2021/07/24 08:09:14;;;;;;;32.70;13.07;;;25.90;54.50;;;;;;5106798;28;20231;-68
2021/07/24 08:11:46;;;;;;;33.83;14.73;;;26.00;54.70;;;;;;5097624;28;20606;-67
2021/07/24 08:14:18;;;;;;;31.03;13.00;;;25.90;56.00;;;;;;5107248;28;20209;-68
2021/07/24 08:16:49;;;;;;;32.30;13.40;;;25.90;55.80;;;;;;5104603;28;20241;-69
2021/07/24 08:19:18;;;;;;;24.87;12.10;;;26.00;56.10;;;;;;5106491;28;20561;-66
2021/07/24 08:21:49;;;;;;;21.07;11.97;;;26.00;56.40;;;;;;5095105;28;20649;-66
2021/07/24 08:24:21;;;;;;;17.13;11.00;;;26.00;57.90;;;;;;5105395;28;20272;-69
2021/07/24 08:26:53;;;;;;;21.80;10.67;;;26.00;57.60;;;;;;5108383;28;20557;-67
2021/07/24 08:29:23;;;;;;;15.03;10.50;;;26.00;58.30;;;;;;5102545;28;20637;-66
2021/07/24 08:31:53;;;;;;;18.53;10.30;;;26.10;58.20;;;;;;5104599;28;20637;-66
2021/07/24 08:34:26;;;;;;;14.03;10.03;;;26.00;59.10;;;;;;5104305;28;20635;-66
2021/07/24 08:37:00;;;;;;;15.87;11.67;;;26.00;58.80;;;;;;5109568;28;20647;-66
2021/07/24 08:39:30;;;;;;;11.83;9.67;;;26.00;58.40;;;;;;5102316;28;20655;-71
2021/07/24 08:42:12;;;;;;;24.60;10.13;;;26.00;58.40;;;;;;5107463;28;20207;-70
2021/07/24 08:44:43;;;;;;;12.67;8.97;;;26.00;58.40;;;;;;5103507;28;20205;-69
2021/07/24 08:47:12;;;;;;;12.07;9.40;;;26.10;58.50;;;;;;5103588;28;20214;-72
2021/07/24 08:49:49;;;;;;;11.60;8.70;;;26.00;58.00;;;;;;5098811;28;20795;-70
2021/07/24 08:52:28;;;;;;;13.53;8.97;;;26.00;58.40;;;;;;5101165;28;20196;-71
2021/07/24 08:55:00;;;;;;;9.40;8.50;;;26.00;58.10;;;;;;5099705;28;20211;-70
2021/07/24 08:57:42;;;;;;;10.13;9.07;;;26.00;58.20;;;;;;5100147;28;20188;-72
2021/07/24 09:00:21;;;;;;;12.80;8.87;;;26.00;58.90;;;;;;5104252;28;20211;-72
2021/07/24 09:03:03;;;;;;;9.67;8.67;;;26.10;58.80;;;;;;5102666;28;20287;-72
2021/07/24 09:05:39;;;;;;;10.63;9.53;;;26.00;58.20;;;;;;5103477;28;22066;-71
2021/07/24 09:08:12;;;;;;;9.77;8.77;;;26.00;57.90;;;;;;5103101;28;20209;-71
2021/07/24 09:10:46;;;;;;;10.27;9.03;;;26.10;58.00;;;;;;5103145;28;20333;-67
2021/07/24 09:13:19;;;;;;;10.50;9.40;;;26.10;57.90;;;;;;5090962;28;20235;-67
2021/07/24 09:15:49;;;;;;;10.57;9.37;;;26.10;58.20;;;;;;5108991;28;20193;-69
2021/07/24 09:18:21;;;;;;;10.23;9.13;;;26.10;57.90;;;;;;5100125;28;20207;-71
2021/07/24 09:20:51;;;;;;;11.60;9.97;;;26.10;58.10;;;;;;5101139;28;20200;-67
2021/07/24 09:23:47;;;;;;;12.43;8.63;;;26.10;58.00;;;;;;5117867;28;20222;-69
2021/07/24 09:26:51;;;;;;;11.10;9.53;;;26.10;57.90;;;;;;5109355;28;20268;-68
2021/07/24 09:29:22;;;;;;;14.43;10.37;;;26.10;58.20;;;;;;5113546;28;20586;-69
2021/07/24 09:31:51;;;;;;;10.70;9.60;;;26.10;57.80;;;;;;5111619;28;20275;-70
2021/07/24 09:34:40;;;;;;;15.30;10.57;;;26.10;58.00;;;;;;5119896;28;20207;-69
2021/07/24 09:37:33;;;;;;;11.67;10.23;;;26.10;58.20;;;;;;5112961;28;20264;-68
2021/07/24 09:40:23;;;;;;;11.10;9.90;;;26.10;58.00;;;;;;5115004;28;20230;-69
2021/07/24 09:42:52;;;;;;;12.63;9.90;;;26.10;58.10;;;;;;5104850;28;20656;-68
2021/07/24 09:45:23;;;;;;;15.87;9.87;;;26.10;58.30;;;;;;5102862;28;20212;-68
2021/07/24 09:47:55;;;;;;;13.37;10.07;;;26.10;58.40;;;;;;5098895;28;20193;-68
2021/07/24 09:50:33;;;;;;;11.53;9.83;;;26.00;58.50;;;;;;5098422;28;20209;-68
2021/07/24 09:53:05;;;;;;;14.40;9.83;;;26.00;58.90;;;;;;5107089;28;20204;-68
2021/07/24 09:55:54;;;;;;;12.90;9.10;;;26.00;59.20;;;;;;5101669;28;20212;-65
2021/07/24 09:58:28;;;;;;;12.20;8.73;;;26.00;59.10;;;;;;5098964;28;20207;-65
2021/07/24 10:01:09;;;;;;;12.77;8.97;;;26.00;59.40;;;;;;5104626;28;20275;-69
2021/07/24 10:03:42;;;;;;;11.33;9.00;;;25.90;59.00;;;;;;5091356;28;20273;-65
2021/07/24 10:06:21;;;;;;;10.53;9.53;;;26.00;59.50;;;;;;5096539;28;20645;-65
2021/07/24 10:08:52;;;;;;;12.20;8.50;;;26.00;58.90;;;;;;5094210;28;20272;-70
2021/07/24 10:11:26;;;;;;;14.50;9.17;;;26.00;59.40;;;;;;5101052;28;20226;-70
2021/07/24 10:14:00;;;;;;;10.17;8.90;;;26.00;59.60;;;;;;5107008;28;20625;-71
2021/07/24 10:16:42;;;;;;;10.03;8.50;;;26.00;59.50;;;;;;5105706;28;20274;-70
2021/07/24 10:19:19;;;;;;;9.13;8.23;;;26.10;59.60;;;;;;5097987;28;20649;-69
2021/07/24 10:21:57;;;;;;;11.87;7.90;;;26.10;59.50;;;;;;5097827;28;20195;-68
2021/07/24 10:24:28;;;;;;;9.80;8.70;;;26.10;59.50;;;;;;5098648;28;20197;-68
2021/07/24 10:27:20;;;;;;;13.03;9.13;;;26.10;59.50;;;;;;5102409;28;20230;-68
2021/07/24 10:30:04;;;;;;;9.50;8.60;;;26.10;59.40;;;;;;5103529;28;20217;-68
2021/07/24 10:32:40;;;;;;;10.50;8.77;;;26.00;59.60;;;;;;5098531;28;20196;-68
2021/07/24 10:35:40;;;;;;;13.23;9.03;;;26.00;59.40;;;;;;5090681;28;20204;-67
2021/07/24 10:38:33;;;;;;;11.17;8.80;;;26.10;59.40;;;;;;5097425;28;20207;-67
2021/07/24 10:41:37;;;;;;;10.67;8.43;;;26.10;59.30;;;;;;5101346;28;20196;-69
2021/07/24 10:44:43;;;;;;;12.37;9.17;;;26.00;59.70;;;;;;5014931;28;20688;-69
2021/07/24 10:47:24;;;;;;;9.93;8.93;;;26.00;60.00;;;;;;5021108;28;20306;-69
2021/07/24 10:49:58;;;;;;;20.00;10.20;;;26.00;59.50;;;;;;5000426;28;20219;-69
2021/07/24 10:53:05;;;;;;;25.27;9.23;;;26.00;59.90;;;;;;5006234;28;20267;-71
2021/07/24 10:55:39;;;;;;;12.80;9.50;;;26.00;59.70;;;;;;5093180;28;20212;-71
2021/07/24 10:58:10;;;;;;;10.87;8.83;;;26.10;59.90;;;;;;5087540;28;20196;-70
2021/07/24 11:00:50;;;;;;;16.43;9.30;;;26.10;60.30;;;;;;5088964;28;20217;-70
2021/07/24 11:03:40;;;;;;;17.97;9.20;;;26.10;60.30;;;;;;5099815;28;20196;-74
2021/07/24 11:06:32;;;;;;;11.27;9.20;;;26.10;61.00;;;;;;5103854;28;20208;-67
2021/07/24 11:09:16;;;;;;;16.43;9.67;;;26.10;60.80;;;;;;5104696;28;20283;-70
2021/07/24 11:12:05;;;;;;;12.57;10.10;;;26.00;61.50;;;;;;5116636;28;20208;-71
2021/07/24 11:14:53;;;;;;;18.40;10.17;;;26.00;60.40;;;;;;5118743;28;20326;-71
2021/07/24 11:17:25;;;;;;;13.77;10.40;;;26.00;59.80;;;;;;5116251;28;20204;-71
2021/07/24 11:20:00;;;;;;;12.90;10.47;;;26.00;60.00;;;;;;5117028;28;20204;-71
2021/07/24 11:22:30;;;;;;;12.87;10.57;;;26.00;59.50;;;;;;5107233;28;20209;-70
2021/07/24 11:25:00;;;;;;;14.90;11.53;;;26.00;59.50;;;;;;5090134;28;20283;-70
2021/07/24 11:27:35;;;;;;;15.40;10.67;;;25.90;60.00;;;;;;5105945;28;20285;-70
2021/07/24 11:30:08;;;;;;;13.67;10.60;;;25.90;60.00;;;;;;5114594;28;20203;-75
2021/07/24 11:32:41;;;;;;;15.00;10.07;;;25.90;60.40;;;;;;5103953;28;20258;-74
2021/07/24 11:35:14;;;;;;;12.60;10.03;;;25.90;60.50;;;;;;5093489;28;20554;-74
2021/07/24 11:37:49;;;;;;;12.07;10.73;;;25.90;60.40;;;;;;5102653;28;20220;-68
2021/07/24 11:40:24;;;;;;;14.60;11.53;;;26.00;60.40;;;;;;5104348;28;20264;-70
2021/07/24 11:43:08;;;;;;;13.17;11.73;;;26.00;60.50;;;;;;5103346;28;20234;-71
2021/07/24 11:45:39;;;;;;;14.10;10.93;;;26.00;60.70;;;;;;5098554;28;20207;-69
2021/07/24 11:48:22;;;;;;;12.93;10.60;;;26.00;59.90;;;;;;5101634;28;20200;-68
2021/07/24 11:51:03;;;;;;;21.53;12.80;;;26.00;59.60;;;;;;5110082;28;20231;-68
2021/07/24 11:53:32;;;;;;;62.93;26.73;;;26.10;59.80;;;;;;5104486;28;20245;-68
2021/07/24 11:56:01;;;;;;;38.33;17.87;;;26.00;59.70;;;;;;5107678;28;20220;-67
2021/07/24 11:58:32;;;;;;;27.00;15.23;;;26.00;59.70;;;;;;5110199;28;20188;-67
2021/07/24 12:01:03;;;;;;;19.33;13.00;;;26.00;60.10;;;;;;5104754;28;20201;-68
2021/07/24 12:03:30;;;;;;;21.07;13.20;;;26.00;59.70;;;;;;5109261;28;20203;-68
2021/07/24 12:06:15;;;;;;;17.03;12.17;;;26.00;60.10;;;;;;5103550;28;20212;-68
2021/07/24 12:09:08;;;;;;;17.80;11.57;;;26.00;60.20;;;;;;5106165;28;20197;-68
2021/07/24 12:11:40;;;;;;;16.73;12.77;;;26.00;60.30;;;;;;5102821;28;20211;-67
2021/07/24 12:14:09;;;;;;;15.43;12.27;;;26.00;60.40;;;;;;5099458;28;20594;-67
2021/07/24 12:16:45;;;;;;;14.87;12.20;;;25.90;59.90;;;;;;5103505;28;20200;-67
2021/07/24 12:19:22;;;;;;;17.03;11.87;;;25.90;59.70;;;;;;5103135;28;20228;-67
2021/07/24 12:21:52;;;;;;;13.77;11.40;;;25.90;60.00;;;;;;5097612;28;20283;-66
2021/07/24 12:24:24;;;;;;;20.20;12.47;;;25.90;60.50;;;;;;5100284;28;20693;-67
2021/07/24 12:27:07;;;;;;;13.63;11.80;;;25.90;60.20;;;;;;5102826;28;20193;-67
2021/07/24 12:30:01;;;;;;;13.10;11.80;;;25.90;60.50;;;;;;5058215;28;20225;-66
2021/07/24 12:32:40;;;;;;;15.47;12.57;;;25.90;60.50;;;;;;5055875;28;20198;-66
2021/07/24 12:35:25;;;;;;;14.20;12.70;;;25.90;60.70;;;;;;5064199;28;20210;-66
2021/07/24 12:38:28;;;;;;;18.07;12.60;;;25.90;60.70;;;;;;5061286;28;20543;-68
2021/07/24 12:41:07;;;;;;;13.93;12.57;;;25.90;60.70;;;;;;5060653;28;20589;-67
2021/07/24 12:43:39;;;;;;;13.60;12.20;;;25.90;61.00;;;;;;5078907;28;20220;-67
2021/07/24 12:46:15;;;;;;;14.03;12.63;;;25.80;60.80;;;;;;5056813;28;20236;-66
2021/07/24 12:48:48;;;;;;;13.90;12.40;;;25.90;61.00;;;;;;5061814;28;20211;-67
2021/07/24 12:51:34;;;;;;;17.07;12.70;;;25.80;61.00;;;;;;5061875;28;20236;-67
2021/07/24 12:54:18;;;;;;;14.60;12.57;;;25.80;61.00;;;;;;5062745;28;20201;-66
2021/07/24 12:56:50;;;;;;;14.53;11.93;;;25.80;61.10;;;;;;5073779;28;20193;-67
2021/07/24 12:59:23;;;;;;;14.00;12.17;;;25.80;61.20;;;;;;5068920;28;20281;-67
2021/07/24 13:01:56;;;;;;;16.33;13.10;;;25.90;61.30;;;;;;5061978;28;20263;-66
2021/07/24 13:04:24;;;;;;;14.00;12.57;;;25.80;61.40;;;;;;5060530;28;20638;-67
2021/07/24 13:06:53;;;;;;;15.63;14.00;;;25.80;62.10;;;;;;5067360;28;20240;-67
2021/07/24 13:09:24;;;;;;;16.00;13.90;;;25.80;62.50;;;;;;5054147;28;20214;-66
2021/07/24 13:11:53;;;;;;;14.33;12.93;;;25.80;62.90;;;;;;5053859;28;20381;-67
2021/07/24 13:14:24;;;;;;;17.87;13.37;;;25.80;63.30;;;;;;5073042;28;20195;-67
2021/07/24 13:16:55;;;;;;;14.87;13.37;;;25.80;63.80;;;;;;5066169;28;20202;-68
2021/07/24 13:19:25;;;;;;;14.87;13.10;;;25.80;63.70;;;;;;5055302;28;20300;-67